Time;durP1;ratioP1;P1;durP2;ratioP2;P2;SDS_P1;SDS_P2;PMS_P1;PMS_P2;Temp;Humidity;BMP_temperature;BMP_pressure;BME280_temperature;BME280_humidity;BME280_pressure;Samples;Min_cycle;Max_cycle;Signal;HPM_P1;HPM_P2
2021/12/11 00:00:07;;;;;;;42.80;24.15;;;;;;;;;;5053966;28;20037;-81
2021/12/11 00:02:34;;;;;;;42.75;23.58;;;;;;;;;;5048042;28;20045;-83
2021/12/11 00:05:01;;;;;;;40.00;22.65;;;;;;;;;;5046441;28;20034;-82
2021/12/11 00:07:28;;;;;;;42.92;23.45;;;;;;;;;;5048381;28;20041;-80
2021/12/11 00:09:55;;;;;;;41.47;24.10;;;;;;;;;;5065803;28;20041;-83
2021/12/11 00:12:24;;;;;;;43.33;24.60;;;;;;;;;;5048457;28;20041;-83
2021/12/11 00:14:54;;;;;;;56.65;24.95;;;;;;;;;;5061200;28;20049;-80
2021/12/11 00:17:21;;;;;;;45.28;24.23;;;;;;;;;;5047420;28;20097;-81
2021/12/11 00:19:47;;;;;;;42.85;22.98;;;;;;;;;;5044938;28;20072;-83
2021/12/11 00:22:15;;;;;;;48.97;24.23;;;;;;;;;;5047137;28;20033;-82
2021/12/11 00:24:41;;;;;;;44.97;24.60;;;;;;;;;;5047253;28;20037;-82
2021/12/11 00:27:11;;;;;;;43.35;24.98;;;;;;;;;;5062549;28;20037;-81
2021/12/11 00:29:37;;;;;;;57.97;26.85;;;;;;;;;;5047050;28;20041;-82
2021/12/11 00:32:08;;;;;;;40.88;24.05;;;;;;;;;;5046722;28;20510;-82
2021/12/11 00:34:34;;;;;;;46.50;25.67;;;;;;;;;;5046191;28;20076;-80
2021/12/11 00:37:01;;;;;;;42.55;24.63;;;;;;;;;;5045715;28;20072;-82
2021/12/11 00:39:27;;;;;;;51.20;24.65;;;;;;;;;;5043731;28;20071;-81
2021/12/11 00:41:55;;;;;;;49.20;23.95;;;;;;;;;;5046509;28;20037;-82
2021/12/11 00:44:54;;;;;;;37.75;22.55;;;;;;;;;;5045168;28;20033;-81
2021/12/11 00:47:21;;;;;;;38.60;22.77;;;;;;;;;;5033792;28;20033;-83
2021/12/11 00:49:56;;;;;;;40.22;23.63;;;;;;;;;;5045221;28;20045;-83
2021/12/11 00:52:29;;;;;;;40.58;25.23;;;;;;;;;;5045041;28;20076;-82
2021/12/11 00:54:55;;;;;;;43.80;24.92;;;;;;;;;;5044897;28;20468;-82
2021/12/11 00:57:21;;;;;;;40.20;24.23;;;;;;;;;;5049214;28;20041;-83
2021/12/11 00:59:47;;;;;;;47.25;25.45;;;;;;;;;;5056441;28;20457;-83
2021/12/11 01:02:14;;;;;;;41.78;23.58;;;;;;;;;;5057098;28;20045;-82
2021/12/11 01:04:43;;;;;;;45.88;26.10;;;;;;;;;;5054241;28;20048;-81
2021/12/11 01:07:18;;;;;;;43.80;25.63;;;;;;;;;;5046593;28;20052;-81
2021/12/11 01:09:48;;;;;;;50.22;26.48;;;;;;;;;;5045652;28;20041;-82
2021/12/11 01:12:21;;;;;;;43.70;25.80;;;;;;;;;;5047231;28;20041;-79
2021/12/11 01:14:52;;;;;;;48.67;27.25;;;;;;;;;;5047302;28;20124;-82
2021/12/11 01:17:20;;;;;;;44.15;26.73;;;;;;;;;;5043844;28;20080;-82
2021/12/11 01:19:47;;;;;;;51.13;28.58;;;;;;;;;;5042669;28;20053;-80
2021/12/11 01:22:48;;;;;;;53.28;29.08;;;;;;;;;;5043422;28;20068;-83
2021/12/11 01:25:07;;;;;;;54.95;29.35;;;;;;;;;;5045276;28;20061;-81
2021/12/11 01:27:34;;;;;;;49.33;27.38;;;;;;;;;;5059122;28;20052;-80
2021/12/11 01:30:00;;;;;;;47.10;28.05;;;;;;;;;;5042523;28;20045;-81
2021/12/11 01:32:27;;;;;;;48.15;27.77;;;;;;;;;;5040634;28;20120;-81
2021/12/11 01:34:53;;;;;;;43.88;27.90;;;;;;;;;;5043894;28;20041;-82
2021/12/11 01:37:19;;;;;;;44.58;27.95;;;;;;;;;;5043580;28;20112;-82
2021/12/11 01:39:45;;;;;;;47.42;27.27;;;;;;;;;;5060260;28;20048;-83
2021/12/11 01:42:15;;;;;;;45.67;28.55;;;;;;;;;;5046357;28;20037;-82
2021/12/11 01:44:41;;;;;;;52.78;27.98;;;;;;;;;;5047155;28;20048;-81
2021/12/11 01:47:18;;;;;;;46.20;28.73;;;;;;;;;;5047389;28;20048;-80
2021/12/11 01:49:45;;;;;;;45.20;26.42;;;;;;;;;;5049225;28;20101;-80
2021/12/11 01:52:15;;;;;;;48.95;26.60;;;;;;;;;;5051674;28;20045;-82
2021/12/11 01:54:44;;;;;;;46.97;27.40;;;;;;;;;;5050520;28;20084;-81
2021/12/11 01:57:12;;;;;;;44.65;28.15;;;;;;;;;;5047270;28;20048;-82
2021/12/11 01:59:39;;;;;;;60.33;30.90;;;;;;;;;;5049569;28;20026;-83
2021/12/11 02:02:07;;;;;;;60.28;31.58;;;;;;;;;;5051384;28;20068;-82
2021/12/11 02:04:34;;;;;;;54.80;31.20;;;;;;;;;;5044826;28;20041;-81
2021/12/11 02:07:01;;;;;;;60.42;33.63;;;;;;;;;;5058401;28;20041;-81
2021/12/11 02:09:31;;;;;;;51.08;30.83;;;;;;;;;;5048950;28;20537;-81
2021/12/11 02:12:15;;;;;;;57.55;31.25;;;;;;;;;;5049292;28;20480;-81
2021/12/11 02:14:45;;;;;;;59.63;33.25;;;;;;;;;;5046533;28;20038;-82
2021/12/11 02:17:20;;;;;;;58.17;32.83;;;;;;;;;;5047334;28;20042;-82
2021/12/11 02:19:47;;;;;;;56.00;30.75;;;;;;;;;;5045900;28;20071;-81
2021/12/11 02:22:14;;;;;;;70.85;34.92;;;;;;;;;;5059415;28;20030;-82
2021/12/11 02:24:44;;;;;;;64.78;34.70;;;;;;;;;;5043008;28;20041;-81
2021/12/11 02:27:13;;;;;;;75.68;37.92;;;;;;;;;;5044078;28;20057;-80
2021/12/11 02:29:41;;;;;;;78.57;38.95;;;;;;;;;;5044242;28;20048;-82
2021/12/11 02:32:07;;;;;;;83.50;39.03;;;;;;;;;;5046534;28;20116;-82
2021/12/11 02:34:38;;;;;;;68.57;37.80;;;;;;;;;;5066750;28;20037;-82
2021/12/11 02:37:06;;;;;;;95.65;42.00;;;;;;;;;;5052606;28;20069;-79
2021/12/11 02:39:34;;;;;;;88.18;43.03;;;;;;;;;;5056796;28;20042;-81
2021/12/11 02:42:03;;;;;;;90.60;42.45;;;;;;;;;;5046051;28;20029;-83
2021/12/11 02:44:31;;;;;;;89.20;41.45;;;;;;;;;;5063228;28;20048;-83
2021/12/11 02:46:59;;;;;;;92.05;42.28;;;;;;;;;;5062975;28;20434;-82
2021/12/11 02:49:26;;;;;;;80.93;40.80;;;;;;;;;;5046634;28;20084;-81
2021/12/11 02:52:05;;;;;;;87.75;38.08;;;;;;;;;;5048719;28;20115;-83
2021/12/11 02:54:33;;;;;;;85.82;41.88;;;;;;;;;;5052353;28;20042;-82
2021/12/11 02:57:03;;;;;;;82.15;40.65;;;;;;;;;;5044585;28;20052;-83
2021/12/11 02:59:31;;;;;;;78.25;40.22;;;;;;;;;;5045531;28;20037;-82
2021/12/11 03:02:02;;;;;;;89.10;40.83;;;;;;;;;;5045961;28;20080;-82
2021/12/11 03:04:41;;;;;;;85.25;40.17;;;;;;;;;;5045641;28;20045;-81
2021/12/11 03:07:08;;;;;;;80.07;40.38;;;;;;;;;;5047129;28;20047;-82
2021/12/11 03:09:35;;;;;;;83.57;40.85;;;;;;;;;;5047124;28;20048;-81
2021/12/11 03:12:02;;;;;;;84.20;41.97;;;;;;;;;;5044841;28;20124;-80
2021/12/11 03:14:28;;;;;;;92.55;43.70;;;;;;;;;;5045460;28;20072;-80
2021/12/11 03:16:54;;;;;;;100.60;44.83;;;;;;;;;;5045141;28;20097;-80
2021/12/11 03:19:22;;;;;;;90.15;45.05;;;;;;;;;;5045604;28;20037;-79
2021/12/11 03:21:48;;;;;;;86.97;41.70;;;;;;;;;;5051213;28;20045;-81
2021/12/11 03:24:14;;;;;;;77.97;39.33;;;;;;;;;;5048754;28;20029;-81
2021/12/11 03:26:40;;;;;;;85.85;41.00;;;;;;;;;;5054498;28;20078;-80
2021/12/11 03:29:07;;;;;;;70.20;39.33;;;;;;;;;;5048516;28;20051;-81
2021/12/11 03:31:36;;;;;;;85.60;39.20;;;;;;;;;;5044844;28;20049;-81
2021/12/11 03:34:02;;;;;;;82.95;39.28;;;;;;;;;;5043811;28;20064;-81
2021/12/11 03:36:30;;;;;;;76.28;37.50;;;;;;;;;;5042844;28;20134;-81
2021/12/11 03:38:57;;;;;;;79.18;39.03;;;;;;;;;;5046156;28;20052;-81
2021/12/11 03:41:24;;;;;;;82.00;39.08;;;;;;;;;;5047397;28;20093;-80
2021/12/11 03:43:50;;;;;;;78.13;38.50;;;;;;;;;;5044884;28;20037;-82
2021/12/11 03:46:16;;;;;;;81.85;41.03;;;;;;;;;;5045989;28;20042;-80
2021/12/11 03:48:42;;;;;;;83.07;40.58;;;;;;;;;;5046206;28;20072;-82
2021/12/11 03:51:09;;;;;;;83.50;40.72;;;;;;;;;;5064372;28;20034;-81
2021/12/11 03:53:35;;;;;;;76.70;39.42;;;;;;;;;;5050063;28;20037;-82
2021/12/11 03:56:01;;;;;;;84.78;41.05;;;;;;;;;;5047591;28;20037;-81
2021/12/11 03:58:27;;;;;;;83.75;41.38;;;;;;;;;;5046833;28;20037;-81
2021/12/11 04:00:58;;;;;;;83.70;40.83;;;;;;;;;;5048119;28;20048;-83
2021/12/11 04:03:25;;;;;;;85.63;42.20;;;;;;;;;;5047354;28;20159;-82
2021/12/11 04:05:52;;;;;;;79.65;41.75;;;;;;;;;;5045894;28;20037;-82
2021/12/11 04:08:19;;;;;;;79.18;42.45;;;;;;;;;;5047642;28;20068;-82
2021/12/11 04:10:45;;;;;;;88.13;43.90;;;;;;;;;;5047932;28;20373;-83
2021/12/11 04:13:13;;;;;;;94.97;47.00;;;;;;;;;;5052097;28;20067;-79
2021/12/11 04:15:39;;;;;;;101.32;49.90;;;;;;;;;;5050353;28;20041;-83
2021/12/11 04:18:05;;;;;;;95.63;51.35;;;;;;;;;;5044089;28;20041;-81
2021/12/11 04:20:31;;;;;;;92.55;46.10;;;;;;;;;;5042809;28;20056;-81
2021/12/11 04:22:57;;;;;;;101.00;51.78;;;;;;;;;;5041158;28;20480;-80
2021/12/11 04:25:26;;;;;;;101.30;48.88;;;;;;;;;;5039808;28;20033;-81
2021/12/11 04:27:52;;;;;;;97.65;50.22;;;;;;;;;;5037058;28;20068;-80
2021/12/11 04:30:19;;;;;;;84.20;46.95;;;;;;;;;;5054250;28;20103;-79
2021/12/11 04:32:45;;;;;;;85.13;43.22;;;;;;;;;;5037572;28;20039;-79
2021/12/11 04:35:11;;;;;;;82.53;41.63;;;;;;;;;;5037924;28;20041;-81
2021/12/11 04:37:37;;;;;;;78.65;40.05;;;;;;;;;;5038121;28;20056;-79
2021/12/11 04:40:05;;;;;;;74.95;38.70;;;;;;;;;;5037873;28;20112;-81
2021/12/11 04:44:59;;;;;;;85.75;41.88;;;;;;;;;;5043580;28;20033;-81
2021/12/11 04:47:33;;;;;;;85.82;41.45;;;;;;;;;;5045792;28;20040;-79
2021/12/11 04:50:05;;;;;;;90.93;43.63;;;;;;;;;;5053971;28;20083;-81
2021/12/11 04:52:41;;;;;;;85.57;42.08;;;;;;;;;;5050573;28;20068;-79
2021/12/11 05:00:29;;;;;;;97.18;46.42;;;;;;;;;;5049597;28;20136;-81
2021/12/11 05:06:04;;;;;;;83.63;43.40;;;;;;;;;;5049543;28;20150;-81
2021/12/11 05:11:16;;;;;;;91.38;44.65;;;;;;;;;;5037397;28;20449;-81
2021/12/11 05:13:42;;;;;;;95.95;48.10;;;;;;;;;;5037773;28;20121;-80
2021/12/11 05:16:10;;;;;;;88.90;44.47;;;;;;;;;;5037473;28;20060;-81
2021/12/11 05:18:36;;;;;;;102.35;45.20;;;;;;;;;;5040710;28;20060;-80
2021/12/11 05:21:04;;;;;;;102.55;47.03;;;;;;;;;;5040657;28;20050;-81
2021/12/11 05:23:30;;;;;;;96.55;46.33;;;;;;;;;;5040146;28;20372;-81
2021/12/11 05:25:56;;;;;;;112.38;51.70;;;;;;;;;;5042786;28;20124;-81
2021/12/11 05:28:22;;;;;;;113.20;50.10;;;;;;;;;;5039500;28;20056;-82
2021/12/11 05:30:49;;;;;;;112.47;49.60;;;;;;;;;;5039410;28;20033;-80
2021/12/11 05:33:15;;;;;;;110.93;50.45;;;;;;;;;;5046814;28;20120;-79
2021/12/11 05:35:41;;;;;;;122.30;52.63;;;;;;;;;;5049179;28;20056;-79
2021/12/11 05:38:09;;;;;;;125.13;58.03;;;;;;;;;;5047522;28;20037;-82
2021/12/11 05:40:35;;;;;;;118.95;52.53;;;;;;;;;;5039370;28;20049;-80
2021/12/11 05:43:01;;;;;;;124.35;51.25;;;;;;;;;;5043848;28;20038;-80
2021/12/11 05:45:27;;;;;;;129.07;56.28;;;;;;;;;;5039742;28;20041;-81
2021/12/11 05:47:53;;;;;;;122.65;52.60;;;;;;;;;;5037922;28;20049;-83
2021/12/11 05:50:21;;;;;;;110.75;49.72;;;;;;;;;;5038513;28;20049;-81
2021/12/11 05:52:48;;;;;;;121.28;52.72;;;;;;;;;;5054667;28;20037;-81
2021/12/11 05:55:17;;;;;;;104.70;48.70;;;;;;;;;;5040182;28;20061;-81
2021/12/11 05:57:50;;;;;;;114.97;47.58;;;;;;;;;;5038632;28;20049;-82
2021/12/11 06:00:16;;;;;;;93.40;43.70;;;;;;;;;;5042282;28;20557;-83
2021/12/11 06:02:42;;;;;;;102.53;47.95;;;;;;;;;;5037443;28;20037;-82
2021/12/11 06:05:08;;;;;;;101.93;45.60;;;;;;;;;;5041405;28;20108;-82
2021/12/11 06:07:35;;;;;;;93.80;43.47;;;;;;;;;;5037476;28;20051;-78
2021/12/11 06:10:06;;;;;;;95.72;45.55;;;;;;;;;;5057449;28;20052;-79
2021/12/11 06:12:32;;;;;;;101.93;45.15;;;;;;;;;;5047091;28;20049;-79
2021/12/11 06:14:58;;;;;;;101.78;46.95;;;;;;;;;;5037955;28;20119;-79
2021/12/11 06:17:25;;;;;;;103.78;46.08;;;;;;;;;;5056558;28;20045;-77
2021/12/11 06:19:53;;;;;;;100.03;47.03;;;;;;;;;;5038133;28;20057;-83
2021/12/11 06:22:20;;;;;;;112.20;48.45;;;;;;;;;;5039280;28;20033;-79
2021/12/11 06:24:46;;;;;;;114.35;49.05;;;;;;;;;;5037087;28;20040;-79
2021/12/11 06:27:12;;;;;;;102.45;47.13;;;;;;;;;;5039977;28;20033;-78
2021/12/11 06:29:38;;;;;;;119.50;48.72;;;;;;;;;;5038082;28;20049;-80
2021/12/11 06:32:04;;;;;;;110.32;47.28;;;;;;;;;;5037793;28;20377;-78
2021/12/11 06:34:32;;;;;;;103.15;46.35;;;;;;;;;;5037884;28;20152;-80
2021/12/11 06:36:58;;;;;;;106.40;46.63;;;;;;;;;;5037777;28;20095;-80
2021/12/11 06:39:25;;;;;;;111.57;46.40;;;;;;;;;;5042764;28;20041;-80
2021/12/11 06:41:52;;;;;;;103.07;45.38;;;;;;;;;;5035840;28;20034;-80
2021/12/11 06:44:19;;;;;;;121.13;49.05;;;;;;;;;;5036166;28;20087;-80
2021/12/11 06:46:45;;;;;;;110.38;49.22;;;;;;;;;;5036943;28;20054;-79
2021/12/11 06:49:11;;;;;;;105.43;45.72;;;;;;;;;;5040763;28;20378;-79
2021/12/11 06:51:37;;;;;;;111.53;48.30;;;;;;;;;;5057202;28;20051;-80
2021/12/11 06:54:09;;;;;;;115.47;49.75;;;;;;;;;;5040502;28;20044;-79
2021/12/11 06:56:36;;;;;;;116.72;49.88;;;;;;;;;;5044131;28;20076;-78
2021/12/11 06:59:02;;;;;;;119.28;51.25;;;;;;;;;;5041152;28;20041;-79
2021/12/11 07:01:28;;;;;;;129.95;50.78;;;;;;;;;;5058723;28;20148;-79
2021/12/11 07:03:56;;;;;;;124.18;52.50;;;;;;;;;;5043656;28;20044;-79
2021/12/11 07:06:22;;;;;;;139.77;58.72;;;;;;;;;;5043478;28;20041;-79
2021/12/11 07:08:50;;;;;;;135.35;56.53;;;;;;;;;;5055970;28;20033;-78
2021/12/11 07:11:16;;;;;;;124.75;51.85;;;;;;;;;;5042713;28;20103;-77
2021/12/11 07:13:42;;;;;;;131.75;56.10;;;;;;;;;;5037839;28;20037;-77
2021/12/11 07:16:08;;;;;;;138.73;56.47;;;;;;;;;;5036859;28;20041;-77
2021/12/11 07:18:34;;;;;;;131.13;55.25;;;;;;;;;;5039419;28;20137;-78
2021/12/11 07:21:00;;;;;;;127.93;55.53;;;;;;;;;;5038610;28;20088;-78
2021/12/11 07:23:26;;;;;;;138.90;56.80;;;;;;;;;;5043068;28;20410;-78
2021/12/11 07:25:54;;;;;;;123.10;53.17;;;;;;;;;;5042220;28;20640;-78
2021/12/11 07:28:21;;;;;;;125.65;53.90;;;;;;;;;;5059568;28;20046;-77
2021/12/11 07:30:47;;;;;;;142.88;56.80;;;;;;;;;;5042517;28;20084;-77
2021/12/11 07:33:13;;;;;;;150.85;61.92;;;;;;;;;;5040578;28;20410;-79
2021/12/11 07:35:40;;;;;;;157.40;61.95;;;;;;;;;;5040326;28;20073;-79
2021/12/11 07:38:06;;;;;;;149.35;62.53;;;;;;;;;;5039303;28;20049;-79
2021/12/11 07:40:33;;;;;;;165.63;64.78;;;;;;;;;;5040886;28;20060;-79
2021/12/11 07:43:00;;;;;;;164.80;63.28;;;;;;;;;;5040789;28;20038;-79
2021/12/11 07:45:26;;;;;;;151.85;58.58;;;;;;;;;;5039390;28;20048;-78
2021/12/11 07:47:52;;;;;;;152.70;59.95;;;;;;;;;;5039742;28;20042;-78
2021/12/11 07:50:18;;;;;;;156.73;60.58;;;;;;;;;;5038907;28;20076;-78
2021/12/11 07:52:44;;;;;;;150.38;57.80;;;;;;;;;;5054664;28;20045;-80
2021/12/11 07:55:10;;;;;;;142.93;56.33;;;;;;;;;;5040579;28;20106;-77
2021/12/11 07:57:36;;;;;;;142.25;56.63;;;;;;;;;;5039030;28;20076;-80
2021/12/11 08:00:04;;;;;;;140.57;58.42;;;;;;;;;;5056400;28;20041;-78
2021/12/11 08:02:30;;;;;;;147.98;56.83;;;;;;;;;;5040189;28;20037;-78
2021/12/11 08:04:56;;;;;;;137.23;56.05;;;;;;;;;;5039313;28;20041;-78
2021/12/11 08:07:22;;;;;;;148.80;55.53;;;;;;;;;;5039864;28;20041;-78
2021/12/11 08:09:48;;;;;;;139.20;55.33;;;;;;;;;;5041638;28;20045;-78
2021/12/11 08:12:14;;;;;;;147.23;53.83;;;;;;;;;;5056451;28;20124;-78
2021/12/11 08:14:40;;;;;;;147.55;56.88;;;;;;;;;;5045721;28;20045;-78
2021/12/11 08:17:06;;;;;;;127.47;55.15;;;;;;;;;;5057968;28;20048;-77
2021/12/11 08:19:33;;;;;;;141.40;54.08;;;;;;;;;;5040152;28;20057;-77
2021/12/11 08:21:59;;;;;;;133.63;55.38;;;;;;;;;;5040531;28;20429;-78
2021/12/11 08:24:27;;;;;;;135.93;53.95;;;;;;;;;;5040347;28;20108;-77
2021/12/11 08:26:53;;;;;;;134.48;54.53;;;;;;;;;;5039717;28;20041;-77
2021/12/11 08:29:20;;;;;;;126.50;54.50;;;;;;;;;;5058316;28;20136;-80
2021/12/11 08:31:48;;;;;;;126.55;54.53;;;;;;;;;;5041748;28;20045;-79
2021/12/11 08:34:14;;;;;;;137.65;58.08;;;;;;;;;;5041015;28;20045;-78
2021/12/11 08:36:40;;;;;;;135.32;55.97;;;;;;;;;;5042120;28;20041;-78
2021/12/11 08:39:07;;;;;;;142.68;57.80;;;;;;;;;;5060910;28;20045;-80
2021/12/11 08:41:33;;;;;;;146.93;57.20;;;;;;;;;;5043451;28;20068;-79
2021/12/11 08:44:04;;;;;;;154.52;57.33;;;;;;;;;;5042533;28;20081;-77
2021/12/11 08:46:31;;;;;;;139.00;56.65;;;;;;;;;;5051862;28;20037;-79
2021/12/11 08:48:58;;;;;;;140.93;58.60;;;;;;;;;;5042373;28;20250;-80
2021/12/11 08:51:44;;;;;;;136.18;57.40;;;;;;;;;;5045195;28;20064;-80
2021/12/11 08:54:10;;;;;;;140.35;57.63;;;;;;;;;;5045284;28;20091;-79
2021/12/11 08:56:37;;;;;;;149.55;59.70;;;;;;;;;;5044362;28;20037;-78
2021/12/11 08:59:04;;;;;;;136.20;59.05;;;;;;;;;;5041802;28;20045;-80
2021/12/11 09:01:35;;;;;;;139.00;59.17;;;;;;;;;;5042580;28;20041;-79
2021/12/11 09:04:04;;;;;;;156.38;59.92;;;;;;;;;;5044505;28;20033;-78
2021/12/11 09:06:32;;;;;;;133.15;59.42;;;;;;;;;;5047575;28;20068;-80
2021/12/11 09:08:58;;;;;;;155.43;63.10;;;;;;;;;;5042231;28;20449;-78
2021/12/11 09:11:26;;;;;;;137.57;58.97;;;;;;;;;;5055561;28;20099;-77
2021/12/11 09:13:58;;;;;;;143.20;60.83;;;;;;;;;;5037895;28;20037;-78
2021/12/11 09:16:25;;;;;;;144.07;60.25;;;;;;;;;;5037761;28;20374;-80
2021/12/11 09:18:51;;;;;;;135.77;61.17;;;;;;;;;;5039552;28;20049;-80
2021/12/11 09:21:25;;;;;;;139.77;60.65;;;;;;;;;;5041322;28;20060;-81
2021/12/11 09:24:08;;;;;;;152.40;66.93;;;;;;;;;;5039844;28;20095;-81
2021/12/11 09:26:37;;;;;;;136.30;59.88;;;;;;;;;;5037554;28;20041;-78
2021/12/11 09:29:23;;;;;;;144.73;59.35;;;;;;;;;;5049778;28;20045;-79
2021/12/11 09:31:53;;;;;;;132.10;59.50;;;;;;;;;;5046209;28;20446;-78
2021/12/11 09:34:20;;;;;;;124.65;58.08;;;;;;;;;;5060963;28;20068;-78
2021/12/11 09:36:48;;;;;;;139.82;58.80;;;;;;;;;;5056521;28;20069;-79
2021/12/11 09:39:35;;;;;;;137.07;57.13;;;;;;;;;;5049625;28;20051;-78
2021/12/11 09:42:01;;;;;;;125.45;58.55;;;;;;;;;;5038346;28;20034;-76
2021/12/11 09:44:38;;;;;;;127.60;58.58;;;;;;;;;;5037503;28;20041;-75
2021/12/11 09:47:05;;;;;;;140.15;59.10;;;;;;;;;;5053555;28;20098;-77
2021/12/11 09:49:34;;;;;;;125.55;57.83;;;;;;;;;;5056443;28;20045;-79
2021/12/11 09:52:15;;;;;;;125.90;58.75;;;;;;;;;;5042080;28;20049;-80
2021/12/11 09:54:41;;;;;;;121.93;56.60;;;;;;;;;;5057386;28;20049;-78
2021/12/11 09:57:08;;;;;;;118.78;55.22;;;;;;;;;;5041121;28;20084;-79
2021/12/11 09:59:35;;;;;;;125.93;58.38;;;;;;;;;;5043970;28;20093;-81
2021/12/11 10:02:02;;;;;;;119.15;57.53;;;;;;;;;;5047792;28;20037;-81
2021/12/11 10:04:32;;;;;;;129.38;57.85;;;;;;;;;;5039790;28;20037;-80
2021/12/11 10:07:24;;;;;;;116.75;55.70;;;;;;;;;;5040611;28;20107;-81
2021/12/11 10:09:49;;;;;;;112.22;53.83;;;;;;;;;;5040041;28;20426;-80
2021/12/11 10:12:16;;;;;;;121.65;56.10;;;;;;;;;;5042073;28;20041;-80
2021/12/11 10:15:01;;;;;;;115.70;53.13;;;;;;;;;;5040875;28;20041;-80
2021/12/11 10:17:30;;;;;;;97.15;50.17;;;;;;;;;;5045582;28;20041;-81
2021/12/11 10:19:57;;;;;;;112.60;53.17;;;;;;;;;;5056864;28;20052;-79
2021/12/11 10:22:25;;;;;;;108.10;51.38;;;;;;;;;;5052790;28;20092;-80
2021/12/11 10:24:51;;;;;;;103.30;53.53;;;;;;;;;;5045996;28;20042;-81
2021/12/11 10:27:18;;;;;;;118.55;55.55;;;;;;;;;;5046539;28;20117;-78
2021/12/11 10:29:45;;;;;;;108.50;52.20;;;;;;;;;;5041360;28;20038;-80
2021/12/11 10:32:12;;;;;;;108.38;52.22;;;;;;;;;;5061830;28;20052;-79
2021/12/11 10:34:39;;;;;;;104.43;50.90;;;;;;;;;;5047625;28;20420;-79
2021/12/11 10:37:07;;;;;;;100.10;49.95;;;;;;;;;;5063290;28;20076;-80
2021/12/11 10:39:33;;;;;;;92.93;49.17;;;;;;;;;;5042913;28;20034;-78
2021/12/11 10:41:59;;;;;;;100.78;48.55;;;;;;;;;;5041672;28;20406;-78
2021/12/11 10:44:27;;;;;;;94.82;46.85;;;;;;;;;;5042539;28;20438;-78
2021/12/11 10:47:04;;;;;;;93.57;45.92;;;;;;;;;;5060319;28;20057;-78
2021/12/11 10:49:30;;;;;;;88.38;47.42;;;;;;;;;;5047943;28;20075;-78
2021/12/11 10:51:58;;;;;;;95.53;48.28;;;;;;;;;;5056384;28;20017;-80
2021/12/11 10:54:24;;;;;;;86.43;45.80;;;;;;;;;;5055216;28;20045;-79
2021/12/11 10:56:50;;;;;;;106.07;48.00;;;;;;;;;;5056924;28;20045;-79
2021/12/11 10:59:20;;;;;;;94.65;46.80;;;;;;;;;;5074707;28;20091;-79
2021/12/11 11:01:48;;;;;;;90.25;46.47;;;;;;;;;;5048530;28;20116;-80
2021/12/11 11:04:15;;;;;;;98.00;48.47;;;;;;;;;;5060806;28;20489;-80
2021/12/11 11:06:45;;;;;;;105.15;49.42;;;;;;;;;;5058928;28;20040;-79
2021/12/11 11:09:11;;;;;;;107.70;49.35;;;;;;;;;;5068833;28;20037;-79
2021/12/11 11:11:37;;;;;;;90.95;47.42;;;;;;;;;;5044322;28;20412;-79
2021/12/11 11:14:04;;;;;;;93.57;45.97;;;;;;;;;;5045163;28;20045;-79
2021/12/11 11:16:30;;;;;;;87.65;45.15;;;;;;;;;;5042763;28;20045;-78
2021/12/11 11:18:56;;;;;;;82.20;46.42;;;;;;;;;;5042597;28;20053;-78
2021/12/11 11:21:27;;;;;;;97.32;46.05;;;;;;;;;;5041676;28;20484;-79
2021/12/11 11:23:53;;;;;;;93.35;46.95;;;;;;;;;;5041794;28;20077;-78
2021/12/11 11:26:20;;;;;;;94.82;46.70;;;;;;;;;;5041730;28;20038;-79
2021/12/11 11:28:46;;;;;;;83.85;45.00;;;;;;;;;;5057590;28;20061;-78
2021/12/11 11:31:14;;;;;;;92.35;45.53;;;;;;;;;;5041569;28;20068;-78
2021/12/11 11:33:41;;;;;;;84.35;46.00;;;;;;;;;;5043460;28;20507;-77
2021/12/11 11:36:09;;;;;;;91.53;44.17;;;;;;;;;;5043697;28;20055;-80
2021/12/11 11:38:36;;;;;;;86.90;45.75;;;;;;;;;;5046776;28;20046;-78
2021/12/11 11:41:05;;;;;;;91.85;44.17;;;;;;;;;;5045606;28;20116;-79
2021/12/11 11:43:31;;;;;;;86.97;45.17;;;;;;;;;;5043208;28;20139;-80
2021/12/11 11:45:57;;;;;;;89.15;45.70;;;;;;;;;;5043803;28;20044;-79
2021/12/11 11:48:24;;;;;;;86.95;44.80;;;;;;;;;;5043859;28;20060;-79
2021/12/11 11:50:51;;;;;;;75.82;40.60;;;;;;;;;;5044734;28;20100;-79
2021/12/11 11:53:19;;;;;;;72.75;41.22;;;;;;;;;;5054664;28;20041;-80
2021/12/11 11:55:47;;;;;;;85.35;41.40;;;;;;;;;;5052441;28;20052;-80
2021/12/11 11:58:13;;;;;;;78.07;40.47;;;;;;;;;;5044169;28;20046;-79
2021/12/11 12:00:42;;;;;;;82.28;41.20;;;;;;;;;;5045023;28;20047;-80
2021/12/11 12:03:13;;;;;;;80.88;40.97;;;;;;;;;;5044443;28;20052;-80
2021/12/11 12:05:42;;;;;;;76.30;40.20;;;;;;;;;;5043924;28;20053;-80
2021/12/11 12:08:09;;;;;;;71.75;38.67;;;;;;;;;;5043378;28;20089;-81
2021/12/11 12:10:35;;;;;;;80.82;40.03;;;;;;;;;;5042707;28;20092;-78
2021/12/11 12:13:05;;;;;;;70.43;38.67;;;;;;;;;;5041193;28;20038;-77
2021/12/11 12:15:32;;;;;;;68.47;35.75;;;;;;;;;;5043636;28;20045;-76
2021/12/11 12:17:58;;;;;;;65.78;34.50;;;;;;;;;;5045640;28;20200;-79
2021/12/11 12:20:24;;;;;;;64.13;35.80;;;;;;;;;;5048723;28;20041;-77
2021/12/11 12:22:51;;;;;;;61.33;36.92;;;;;;;;;;5050588;28;20065;-78
2021/12/11 12:25:18;;;;;;;64.68;36.20;;;;;;;;;;5052549;28;20046;-78
2021/12/11 12:27:44;;;;;;;65.90;34.83;;;;;;;;;;5040111;28;20041;-79
2021/12/11 12:30:12;;;;;;;63.35;34.40;;;;;;;;;;5040124;28;20323;-77
2021/12/11 12:32:38;;;;;;;60.92;35.05;;;;;;;;;;5039140;28;20073;-77
2021/12/11 12:35:07;;;;;;;60.60;34.35;;;;;;;;;;5039422;28;20044;-78
2021/12/11 12:37:33;;;;;;;70.35;37.05;;;;;;;;;;5040458;28;20115;-78
2021/12/11 12:39:59;;;;;;;60.17;34.20;;;;;;;;;;5043671;28;20373;-77
2021/12/11 12:42:35;;;;;;;57.95;33.55;;;;;;;;;;5053887;28;20044;-77
2021/12/11 12:45:09;;;;;;;65.65;33.58;;;;;;;;;;5042396;28;20167;-78
2021/12/11 12:47:37;;;;;;;59.65;34.22;;;;;;;;;;5038178;28;20069;-78
2021/12/11 12:50:05;;;;;;;59.38;34.30;;;;;;;;;;5038080;28;20122;-78
2021/12/11 12:52:33;;;;;;;54.53;31.52;;;;;;;;;;5038423;28;20088;-79
2021/12/11 12:55:00;;;;;;;54.10;31.85;;;;;;;;;;5038470;28;20049;-78
2021/12/11 12:57:30;;;;;;;57.72;31.27;;;;;;;;;;5054810;28;20083;-79
2021/12/11 12:59:59;;;;;;;53.58;32.25;;;;;;;;;;5039498;28;20042;-78
2021/12/11 13:02:25;;;;;;;55.15;32.45;;;;;;;;;;5041680;28;20038;-79
2021/12/11 13:04:53;;;;;;;52.97;30.98;;;;;;;;;;5048129;28;20042;-79
2021/12/11 13:07:19;;;;;;;54.20;31.98;;;;;;;;;;5039502;28;20041;-78
2021/12/11 13:09:50;;;;;;;62.65;33.10;;;;;;;;;;5038993;28;20042;-78
2021/12/11 13:12:21;;;;;;;56.78;32.08;;;;;;;;;;5040018;28;20049;-79
2021/12/11 13:14:48;;;;;;;50.80;30.58;;;;;;;;;;5038806;28;20072;-80
2021/12/11 13:17:16;;;;;;;51.28;31.48;;;;;;;;;;5039038;28;20365;-80
2021/12/11 13:19:44;;;;;;;52.58;30.88;;;;;;;;;;5054725;28;20046;-79
2021/12/11 13:22:11;;;;;;;51.53;30.45;;;;;;;;;;5039382;28;20037;-78
2021/12/11 13:24:37;;;;;;;49.40;30.50;;;;;;;;;;5038033;28;20473;-78
2021/12/11 13:27:05;;;;;;;54.75;30.35;;;;;;;;;;5040339;28;20485;-80
2021/12/11 13:29:32;;;;;;;51.80;30.10;;;;;;;;;;5056701;28;20021;-79
2021/12/11 13:32:00;;;;;;;56.20;30.88;;;;;;;;;;5066853;28;20057;-79
2021/12/11 13:34:34;;;;;;;47.40;29.52;;;;;;;;;;5053229;28;20048;-80
2021/12/11 13:37:04;;;;;;;51.25;28.95;;;;;;;;;;5048099;28;20041;-78
2021/12/11 13:39:30;;;;;;;54.30;31.15;;;;;;;;;;5046156;28;20041;-79
2021/12/11 13:41:59;;;;;;;48.50;29.45;;;;;;;;;;5045924;28;20037;-79
2021/12/11 13:44:25;;;;;;;53.22;31.02;;;;;;;;;;5053663;28;20087;-79
2021/12/11 13:46:51;;;;;;;59.63;35.50;;;;;;;;;;5046837;28;20033;-79
2021/12/11 13:49:18;;;;;;;54.78;32.22;;;;;;;;;;5047521;28;20037;-80
2021/12/11 13:51:44;;;;;;;57.47;33.80;;;;;;;;;;5054580;28;20041;-81
2021/12/11 13:54:13;;;;;;;61.97;32.97;;;;;;;;;;5054295;28;20033;-79
2021/12/11 13:56:41;;;;;;;52.35;32.85;;;;;;;;;;5048101;28;20034;-80
2021/12/11 13:59:08;;;;;;;56.80;34.08;;;;;;;;;;5047440;28;20059;-79
2021/12/11 14:01:34;;;;;;;61.65;34.38;;;;;;;;;;5042952;28;20038;-78
2021/12/11 14:04:01;;;;;;;69.93;38.25;;;;;;;;;;5038459;28;20453;-78
2021/12/11 14:06:27;;;;;;;60.67;35.13;;;;;;;;;;5042783;28;20052;-80
2021/12/11 14:08:59;;;;;;;69.70;37.50;;;;;;;;;;5043295;28;20046;-80
2021/12/11 14:11:25;;;;;;;65.82;35.40;;;;;;;;;;5042533;28;20045;-79
2021/12/11 14:13:51;;;;;;;66.45;37.97;;;;;;;;;;5042895;28;20052;-77
2021/12/11 14:16:22;;;;;;;74.40;39.08;;;;;;;;;;5045277;28;20041;-80
2021/12/11 14:18:48;;;;;;;62.30;34.92;;;;;;;;;;5044549;28;20075;-82
2021/12/11 14:21:14;;;;;;;63.70;35.58;;;;;;;;;;5042980;28;20076;-80
2021/12/11 14:23:41;;;;;;;65.70;35.92;;;;;;;;;;5044308;28;20041;-81
2021/12/11 14:26:08;;;;;;;62.63;36.53;;;;;;;;;;5043406;28;20046;-80
2021/12/11 14:28:34;;;;;;;65.75;36.20;;;;;;;;;;5060365;28;20052;-80